Baileyville, IL (61007)

8:35 AM CDT on May 05, 2015 (GMT -0500)
KILFREEP4 | | Change Station
CLOSE
Current Station
Personal Weather Station
Location: Freeport, IL
Elevation: 792 ft
Nearby Weather Stations

Elev 792 ft 42.26 °N, 89.62 °W | Updated 12 seconds ago

Rain
Rain
52.3 °F
Feels Like 52.3 °F
N
6.0
Wind Variable Wind from NE
Gusts 10.0 mph

Today
High -- | Low -- °F
--% Chance of Precip.
Yesterday
High -- | Low -- °F
Precip. -- in
5:49 AM 8:01 PM
Full, 98% visible
Pressure 30.22 in
Visibility 10.0 miles
Clouds Overcast 800 ft
Dew Point 51 °F
Humidity 96%
Rainfall 0.76 in
Snow Depth Not available.
UV 1 out of 12
Pollen 3.10 out of 12
Air Quality Not available.
Flu Activity Local Activity
METAR KFEP 051315Z AUTO 06009KT 10SM -DZ OVC008 11/10 A3022 RMK AO2 T01050098

More Conditions Fewer Conditions

Pressure 30.22 in
Visibility 10.0 miles
Clouds Overcast 800 ft
Dew Point 51 °F
Humidity 96%
Rainfall 0.76 in
Snow Depth Not available.
UV 1 out of 12
Pollen 3.10 out of 12
Air Quality Not available.
Flu Activity Local Activity
METAR KFEP 051315Z AUTO 06009KT 10SM -DZ OVC008 11/10 A3022 RMK AO2 T01050098

More Conditions Fewer Conditions

Nepal has a long way to go to dig out and rebuild from a devastating earthquake. We have teamed up with several charities and organizations to make contributing to the relief effort as easy as possible.
How you can help: Portlight Strategies | Red Cross

10-Day Weather Forecast

Almanac

Astronomy

May. 05, 2015 Rise Set
Actual Time
Civil Twilight
Nautical Twilight
Astronomical Twilight
Moon
Length of Visible Light
Length of Day
Tomorrow will be .
, % of the Moon is Illuminated

Today's Extremes

State Highs State Lows

Community

WunderPhotos

Upload Photos

1,818,884 photos uploaded!

WunderBlogs® & News

Nearby

Air Quality

  Air Quality AQ Index Pollutant
Not available.

Snow Depth

Station Depth Elevation

Earthquake Activity

City Distance Mag. Time & Date
Minimum magnitude displayed is 2.5.

Coastal Water Temperatures

Place Temperature

Stations

Nearby Weather Stations

Station Location Temp. Windchill Dew Point Humidity Wind Precip. Elev Updated Type